createdAt,value
2023-03-21T02:03:11.139Z,101151.50
2023-03-21T02:05:49.202Z,101149.97
2023-03-21T02:08:16.483Z,101150.13
2023-03-21T02:10:47.200Z,101136.19
2023-03-21T02:13:15.924Z,101128.81
2023-03-21T02:15:49.941Z,101132.47
2023-03-21T02:18:26.294Z,101129.28
2023-03-21T02:21:43.538Z,101118.44
2023-03-21T02:24:38.647Z,101120.28
2023-03-21T02:27:13.945Z,101124.59
2023-03-21T02:30:14.899Z,101122.63
2023-03-21T02:33:10.798Z,101125.06
2023-03-21T02:35:58.653Z,101123.41
2023-03-21T02:38:36.779Z,101121.56
2023-03-21T02:41:18.006Z,101117.03
2023-03-21T02:43:52.119Z,101110.91
2023-03-21T02:46:28.347Z,101112.66
2023-03-21T02:49:06.950Z,101120.13
2023-03-21T02:51:35.847Z,101115.25
2023-03-21T02:54:28.213Z,101115.72
2023-03-21T02:56:58.228Z,101118.25
2023-03-21T02:59:27.027Z,101111.69
2023-03-21T03:01:56.328Z,101107.63
2023-03-21T03:04:26.801Z,101120.09
2023-03-21T03:07:11.477Z,101109.72
2023-03-21T03:09:55.857Z,101105.63
2023-03-21T03:12:31.361Z,101112.41
2023-03-21T03:15:10.704Z,101113.25
2023-03-21T03:17:47.166Z,101108.69
2023-03-21T03:20:21.614Z,101113.09
2023-03-21T03:22:56.150Z,101108.53
2023-03-21T03:25:41.563Z,101111.28
2023-03-21T03:28:09.792Z,101091.06
2023-03-21T03:30:46.759Z,101093.81
2023-03-21T03:33:23.559Z,101090.91
2023-03-21T03:36:04.639Z,101093.34
2023-03-21T03:38:36.508Z,101094.63
2023-03-21T03:41:11.527Z,101095.56
2023-03-21T03:43:44.176Z,101086.13
2023-03-21T03:46:16.499Z,101085.59
2023-03-21T03:48:48.965Z,101082.13
2023-03-21T03:51:21.165Z,101090.66
2023-03-21T03:53:53.574Z,101081.06
2023-03-21T03:56:22.525Z,101082.13
2023-03-21T03:58:49.775Z,101079.66
2023-03-21T04:01:17.726Z,101077.66
2023-03-21T04:03:53.049Z,101086.41
2023-03-21T04:06:31.462Z,101072.00
2023-03-21T04:09:00.146Z,101071.38
2023-03-21T04:11:29.828Z,101071.13
2023-03-21T04:13:56.663Z,101072.03
2023-03-21T04:16:23.755Z,101073.56
2023-03-21T04:18:50.723Z,101068.34
2023-03-21T04:21:17.551Z,101070.41
2023-03-21T04:23:44.542Z,101071.69
2023-03-21T04:26:11.376Z,101075.09
2023-03-21T04:28:39.855Z,101074.88
2023-03-21T04:31:16.073Z,101072.28
2023-03-21T04:33:51.233Z,101069.63
2023-03-21T04:36:30.645Z,101068.72
2023-03-21T04:39:04.777Z,101064.72
2023-03-21T04:41:32.269Z,101063.13
2023-03-21T04:44:01.667Z,101062.66
2023-03-21T04:46:28.571Z,101057.38
2023-03-21T04:48:55.533Z,101050.63
2023-03-21T04:51:22.431Z,101046.19
2023-03-21T04:53:49.582Z,101052.16
2023-03-21T04:56:16.517Z,101053.91
2023-03-21T04:58:43.592Z,101045.59
2023-03-21T05:01:14.507Z,101035.78
2023-03-21T05:03:41.610Z,101032.31
2023-03-21T05:06:09.879Z,101033.59
2023-03-21T05:08:37.215Z,101028.91
2023-03-21T05:11:04.818Z,101033.59
2023-03-21T05:13:32.001Z,101029.28
2023-03-21T05:15:58.991Z,101020.97
2023-03-21T05:18:27.819Z,101020.97
2023-03-21T05:20:55.387Z,101016.16
2023-03-21T05:23:22.888Z,101021.09
2023-03-21T05:25:50.139Z,101022.47
2023-03-21T05:28:18.503Z,101022.84
2023-03-21T05:30:46.180Z,101022.84
2023-03-21T05:33:13.586Z,101023.28
2023-03-21T05:35:41.994Z,101024.47
2023-03-21T05:38:08.941Z,101023.19
2023-03-21T05:40:35.902Z,101021.69
2023-03-21T05:43:02.796Z,101022.94
2023-03-21T05:45:29.809Z,101016.00
2023-03-21T05:47:57.097Z,101019.09
2023-03-21T05:50:24.113Z,101012.63
2023-03-21T05:52:52.588Z,101019.31
2023-03-21T05:55:19.863Z,101011.38
2023-03-21T05:57:47.002Z,101007.88
2023-03-21T06:00:17.026Z,101008.09
2023-03-21T06:02:44.908Z,101002.81
2023-03-21T06:05:11.987Z,101004.75
2023-03-21T06:07:41.836Z,101014.53
2023-03-21T06:10:23.928Z,101008.13
2023-03-21T06:13:00.622Z,101016.16
2023-03-21T06:15:37.286Z,101012.91
2023-03-21T06:18:08.039Z,101016.50
2023-03-21T06:20:41.918Z,101009.97
2023-03-21T06:23:09.435Z,101009.00
2023-03-21T06:25:45.502Z,101010.31
2023-03-21T06:28:28.321Z,101008.19
2023-03-21T06:30:59.217Z,101008.91
2023-03-21T06:33:28.437Z,101008.88
2023-03-21T06:38:49.610Z,101003.59
2023-03-21T06:41:19.898Z,101009.38
2023-03-21T06:43:52.966Z,101007.16
2023-03-21T06:46:22.241Z,101007.25
2023-03-21T06:48:52.176Z,101006.06
2023-03-21T06:51:23.993Z,101007.81
2023-03-21T06:53:52.106Z,101001.25
2023-03-21T06:59:04.779Z,100995.94
2023-03-21T07:01:33.486Z,100988.53
2023-03-21T07:04:01.332Z,100982.09
2023-03-21T07:06:28.979Z,100984.53
2023-03-21T07:08:58.906Z,100985.66
2023-03-21T07:11:37.650Z,100977.06
2023-03-21T07:14:05.572Z,100972.91
2023-03-21T07:16:32.833Z,100984.53
2023-03-21T07:19:02.627Z,100983.97
2023-03-21T07:21:29.621Z,100975.03
2023-03-21T07:23:58.963Z,100972.59
2023-03-21T07:26:29.617Z,100974.38
2023-03-21T07:28:57.604Z,100968.69
2023-03-21T07:31:26.886Z,100971.50
2023-03-21T07:33:54.684Z,100980.28
2023-03-21T07:36:22.245Z,100974.19
2023-03-21T07:38:49.375Z,100979.56
2023-03-21T07:43:47.949Z,100986.19
2023-03-21T07:46:15.504Z,100981.19
2023-03-21T07:48:44.841Z,100977.19
2023-03-21T07:51:14.631Z,100976.94
2023-03-21T07:53:44.322Z,100968.31
2023-03-21T07:56:11.565Z,100972.28
2023-03-21T07:58:40.970Z,100965.38
2023-03-21T08:01:09.882Z,100954.06
2023-03-21T08:03:38.275Z,100955.09
2023-03-21T08:06:07.336Z,100951.25
2023-03-21T08:08:34.856Z,100939.41
2023-03-21T08:11:02.698Z,100953.16
2023-03-21T08:13:29.853Z,100956.56
2023-03-21T08:15:57.342Z,100955.84
2023-03-21T08:18:27.675Z,100952.91
2023-03-21T08:20:56.476Z,100954.31
2023-03-21T08:23:25.308Z,100945.47
2023-03-21T08:25:55.858Z,100939.06
2023-03-21T08:28:24.461Z,100941.19
2023-03-21T08:30:53.623Z,100934.31
2023-03-21T08:33:20.782Z,100932.19
2023-03-21T08:35:49.380Z,100898.88
2023-03-21T08:38:17.011Z,100912.13
2023-03-21T08:40:43.889Z,100919.81
2023-03-21T08:43:11.853Z,100927.53
2023-03-21T08:45:40.527Z,100920.63
2023-03-21T08:48:07.596Z,100920.28
2023-03-21T08:50:34.458Z,100924.41
2023-03-21T08:53:02.812Z,100911.47
2023-03-21T08:55:31.846Z,100927.41
2023-03-21T08:57:58.778Z,100936.94
2023-03-21T09:00:25.869Z,100956.72
2023-03-21T09:02:54.406Z,100923.63
2023-03-21T09:05:22.786Z,100960.25
2023-03-21T09:07:49.814Z,100957.16
2023-03-21T09:10:21.851Z,100954.16
2023-03-21T09:12:50.536Z,100952.28
2023-03-21T09:15:18.580Z,100952.78
2023-03-21T09:17:50.206Z,100953.09
2023-03-21T09:20:21.307Z,100956.72
2023-03-21T09:22:50.269Z,100956.28
2023-03-21T09:25:19.687Z,100960.91
2023-03-21T09:27:46.638Z,100963.25
2023-03-21T09:30:16.538Z,100955.22
2023-03-21T09:32:48.690Z,100955.84
2023-03-21T09:35:16.278Z,100976.53
2023-03-21T09:37:43.283Z,100980.97
2023-03-21T09:40:18.128Z,100966.13
2023-03-21T09:42:56.562Z,100964.13
2023-03-21T09:45:35.224Z,100964.63
2023-03-21T09:48:02.730Z,100964.63
2023-03-21T09:50:33.620Z,100956.22
2023-03-21T09:53:05.439Z,100957.72
2023-03-21T09:55:35.339Z,100960.88
2023-03-21T09:58:08.217Z,100952.28
2023-03-21T10:00:38.888Z,100965.97
2023-03-21T10:03:17.630Z,100964.63
2023-03-21T10:05:47.582Z,100972.31
2023-03-21T10:08:24.403Z,100987.38
2023-03-21T10:10:53.592Z,100967.53
2023-03-21T10:13:25.586Z,100977.44
2023-03-21T10:15:56.993Z,100968.00
2023-03-21T10:18:26.593Z,100978.44
2023-03-21T10:20:54.757Z,100979.88
2023-03-21T10:23:26.685Z,100982.31
2023-03-21T10:25:56.405Z,100972.00
2023-03-21T10:28:27.639Z,100971.34
2023-03-21T10:30:56.974Z,100972.78
2023-03-21T10:33:26.626Z,100979.22
2023-03-21T10:35:56.273Z,100961.22
2023-03-21T10:38:26.537Z,100958.59
2023-03-21T10:40:54.284Z,100965.84
2023-03-21T10:43:37.939Z,100965.84
2023-03-21T10:46:11.651Z,100961.22
2023-03-21T10:48:40.072Z,100973.28
2023-03-21T10:51:09.473Z,100962.84
2023-03-21T10:53:40.168Z,100954.19
2023-03-21T10:56:10.179Z,100954.84
2023-03-21T10:58:42.878Z,100960.88
2023-03-21T11:01:15.107Z,100962.69
2023-03-21T11:03:46.903Z,100972.06
2023-03-21T11:06:22.942Z,100973.28
2023-03-21T11:08:54.204Z,100975.78
2023-03-21T11:11:24.517Z,100970.75
2023-03-21T11:13:59.275Z,100964.19
2023-03-21T11:16:32.013Z,100957.50
2023-03-21T11:19:04.103Z,100956.72
2023-03-21T11:21:37.155Z,100954.00
2023-03-21T11:24:07.630Z,100951.72
2023-03-21T11:26:37.606Z,100955.16
2023-03-21T11:29:27.168Z,100949.59
2023-03-21T11:31:59.291Z,100955.94
2023-03-21T11:34:30.878Z,100948.88
2023-03-21T11:37:02.755Z,100954.53
2023-03-21T11:39:37.270Z,100949.97
2023-03-21T11:42:04.361Z,100955.13
2023-03-21T11:44:41.651Z,100942.56
2023-03-21T11:47:10.308Z,100938.41
2023-03-21T11:49:38.317Z,100941.09
2023-03-21T11:52:17.883Z,100941.81
2023-03-21T11:55:08.702Z,100946.28
2023-03-21T11:57:43.882Z,100951.06
2023-03-21T12:00:18.344Z,100962.00
2023-03-21T12:03:24.194Z,100945.50
2023-03-21T12:05:54.776Z,100949.69
2023-03-21T12:08:36.521Z,100944.34
2023-03-21T12:11:15.542Z,100938.81
2023-03-21T12:13:53.930Z,100947.25
2023-03-21T12:16:36.772Z,100943.31
2023-03-21T12:19:49.180Z,100929.22
2023-03-21T12:22:24.790Z,100922.78
2023-03-21T12:24:55.520Z,100925.19
2023-03-21T12:27:37.646Z,100933.94
2023-03-21T12:30:19.090Z,100937.81
2023-03-21T12:33:00.685Z,100929.84
2023-03-21T12:35:41.480Z,100926.72
2023-03-21T12:38:17.056Z,100916.25
2023-03-21T12:40:58.038Z,100921.91
2023-03-21T12:43:37.932Z,100914.22
2023-03-21T12:46:10.899Z,100908.56
2023-03-21T12:48:44.694Z,100906.00
2023-03-21T12:51:13.010Z,100907.03
2023-03-21T12:53:59.751Z,100909.34
2023-03-21T12:56:32.129Z,100900.63
2023-03-21T12:59:08.161Z,100900.25
2023-03-21T13:01:38.634Z,100896.94
2023-03-21T13:04:32.883Z,100888.81
2023-03-21T13:07:07.708Z,100888.88
2023-03-21T13:09:39.579Z,100884.41
2023-03-21T13:12:28.169Z,100889.28
2023-03-21T13:15:24.614Z,100882.03
2023-03-21T13:17:59.973Z,100882.56
2023-03-21T13:20:37.690Z,100874.75
2023-03-21T13:23:10.647Z,100871.50
2023-03-21T13:25:43.702Z,100872.91
2023-03-21T13:28:21.254Z,100867.50
2023-03-21T13:30:51.302Z,100874.66
2023-03-21T13:33:26.282Z,100869.31
2023-03-21T13:36:06.553Z,100858.16
2023-03-21T13:38:40.305Z,100854.38
2023-03-21T13:41:12.046Z,100857.66
2023-03-21T13:43:54.092Z,100851.13
2023-03-21T13:46:53.977Z,100849.69
2023-03-21T13:49:32.671Z,100840.03
2023-03-21T13:52:03.156Z,100842.13
2023-03-21T13:54:52.476Z,100838.72
2023-03-21T13:57:39.324Z,100832.84
2023-03-21T14:00:24.903Z,100838.72
2023-03-21T14:03:03.710Z,100832.31
2023-03-21T14:05:35.684Z,100845.56
2023-03-21T14:08:15.468Z,100851.22
2023-03-21T14:10:47.738Z,100847.59
2023-03-21T14:13:19.201Z,100851.63
2023-03-21T14:15:55.943Z,100841.22
2023-03-21T14:18:41.228Z,100839.28
2023-03-21T14:21:24.049Z,100837.28
2023-03-21T14:24:04.409Z,100837.31
2023-03-21T14:26:34.757Z,100834.03
2023-03-21T14:29:07.128Z,100841.38
2023-03-21T14:31:41.941Z,100819.50
2023-03-21T14:34:11.220Z,100814.97
2023-03-21T14:36:43.091Z,100821.53
2023-03-21T14:39:23.827Z,100823.16
2023-03-21T14:41:54.514Z,100829.13
2023-03-21T14:44:26.133Z,100828.59
2023-03-21T14:47:00.183Z,100829.50
2023-03-21T14:49:29.176Z,100828.06
2023-03-21T14:52:01.776Z,100831.97
2023-03-21T14:54:38.316Z,100814.28
2023-03-21T14:57:10.883Z,100822.25
2023-03-21T14:59:39.906Z,100818.72
2023-03-21T15:02:17.249Z,100817.75
2023-03-21T15:04:54.082Z,100811.81
2023-03-21T15:07:28.214Z,100810.28
2023-03-21T15:10:00.921Z,100810.16
2023-03-21T15:12:27.929Z,100801.50
2023-03-21T15:14:58.325Z,100807.25
2023-03-21T15:17:27.426Z,100805.97
2023-03-21T15:19:57.460Z,100795.06
2023-03-21T15:22:34.399Z,100797.13
2023-03-21T15:25:06.929Z,100789.47
2023-03-21T15:27:40.955Z,100800.38
2023-03-21T15:30:21.125Z,100802.72
2023-03-21T15:32:51.144Z,100805.84
2023-03-21T15:35:24.472Z,100802.69
2023-03-21T15:38:11.673Z,100806.38
2023-03-21T15:40:41.247Z,100798.63
2023-03-21T15:43:16.445Z,100803.91
2023-03-21T15:45:48.288Z,100803.56
2023-03-21T15:48:15.473Z,100796.63
2023-03-21T15:50:48.348Z,100804.59
2023-03-21T15:53:18.196Z,100806.44
2023-03-21T15:55:49.929Z,100799.25
2023-03-21T15:58:19.882Z,100804.06
2023-03-21T16:00:53.474Z,100791.63
2023-03-21T16:03:24.896Z,100787.09
2023-03-21T16:06:10.646Z,100791.41
2023-03-21T16:08:42.975Z,100798.34
2023-03-21T16:11:17.181Z,100799.19
2023-03-21T16:13:44.302Z,100802.69
2023-03-21T16:16:17.034Z,100792.94
2023-03-21T16:18:44.232Z,100805.50
2023-03-21T16:21:13.572Z,100803.88
2023-03-21T16:23:41.023Z,100822.16
2023-03-21T16:26:11.822Z,100826.91
2023-03-21T16:28:40.200Z,100829.88
2023-03-21T16:31:11.985Z,100825.97
2023-03-21T16:33:39.488Z,100840.06
2023-03-21T16:36:09.283Z,100816.22
2023-03-21T16:38:36.224Z,100822.16
2023-03-21T16:41:04.412Z,100811.59
2023-03-21T16:43:31.256Z,100818.16
2023-03-21T16:45:59.573Z,100821.94
2023-03-21T16:48:26.782Z,100816.50
2023-03-21T16:50:53.680Z,100815.06
2023-03-21T16:53:20.573Z,100812.38
2023-03-21T16:55:47.521Z,100811.00
2023-03-21T16:58:16.046Z,100805.66
2023-03-21T17:00:43.707Z,100806.03
2023-03-21T17:03:19.280Z,100817.03
2023-03-21T17:05:46.497Z,100798.66
2023-03-21T17:08:15.739Z,100806.84
2023-03-21T17:10:42.706Z,100797.19
2023-03-21T17:13:09.647Z,100793.41
2023-03-21T17:15:36.695Z,100800.03
2023-03-21T17:18:03.626Z,100799.09
2023-03-21T17:20:33.601Z,100790.00
2023-03-21T17:23:02.179Z,100792.94
2023-03-21T17:25:29.225Z,100794.59
2023-03-21T17:27:56.318Z,100794.91
2023-03-21T17:30:25.369Z,100794.75
2023-03-21T17:32:53.129Z,100805.59
2023-03-21T17:35:21.445Z,100804.53
2023-03-21T17:37:50.674Z,100793.38
2023-03-21T17:40:21.130Z,100800.88
2023-03-21T17:42:48.557Z,100792.50
2023-03-21T17:45:16.445Z,100805.06
2023-03-21T17:47:43.428Z,100800.03
2023-03-21T17:50:16.654Z,100806.84
2023-03-21T17:52:43.585Z,100796.63
2023-03-21T17:55:12.533Z,100802.66
2023-03-21T17:57:40.013Z,100799.03
2023-03-21T18:00:14.144Z,100791.75
2023-03-21T18:02:42.959Z,100785.81
2023-03-21T18:05:12.715Z,100784.09
2023-03-21T18:08:08.839Z,100784.91
2023-03-21T18:10:36.160Z,100775.53
2023-03-21T18:13:04.016Z,100775.69
2023-03-21T18:15:38.321Z,100776.25
2023-03-21T18:18:06.132Z,100780.03
2023-03-21T18:20:58.485Z,100776.34
2023-03-21T18:23:26.334Z,100775.56
2023-03-21T18:25:56.873Z,100771.28
2023-03-21T18:28:26.326Z,100778.31
2023-03-21T18:31:08.164Z,100782.25
2023-03-21T18:33:39.818Z,100782.78
2023-03-21T18:36:14.090Z,100778.91
2023-03-21T18:38:43.803Z,100776.84
2023-03-21T18:41:13.306Z,100779.31
2023-03-21T18:44:05.292Z,100780.84
2023-03-21T18:46:35.007Z,100781.00
2023-03-21T18:49:27.037Z,100777.75
2023-03-21T18:51:50.763Z,100775.44
2023-03-21T18:54:18.234Z,100777.78
2023-03-21T18:59:39.650Z,100782.13
2023-03-21T19:02:08.081Z,100780.50
2023-03-21T19:04:39.159Z,100782.97
2023-03-21T19:07:08.105Z,100793.03
2023-03-21T19:10:01.631Z,100777.81
2023-03-21T19:12:28.357Z,100781.50
2023-03-21T19:14:57.046Z,100780.88
2023-03-21T19:18:15.683Z,100777.91
2023-03-21T19:20:14.074Z,100783.63
2023-03-21T19:22:43.228Z,100780.09
2023-03-21T19:25:12.102Z,100787.75
2023-03-21T19:27:40.732Z,100800.47
2023-03-21T19:30:16.880Z,100797.75
2023-03-21T19:32:45.210Z,100796.81
2023-03-21T19:35:13.520Z,100794.91
2023-03-21T19:37:40.554Z,100784.13
2023-03-21T19:40:10.763Z,100790.94
2023-03-21T19:42:37.905Z,100794.56
2023-03-21T19:45:08.059Z,100794.00
2023-03-21T19:47:36.466Z,100791.13
2023-03-21T19:52:52.197Z,100786.94
2023-03-21T19:55:19.189Z,100781.47
2023-03-21T19:57:49.544Z,100790.81
2023-03-21T20:00:19.199Z,100788.72
2023-03-21T20:02:47.173Z,100789.56
2023-03-21T20:05:17.139Z,100783.09
2023-03-21T20:07:44.651Z,100785.19
2023-03-21T20:10:11.893Z,100788.91
2023-03-21T20:12:41.272Z,100787.25
2023-03-21T20:15:17.650Z,100781.91
2023-03-21T20:17:47.206Z,100769.63
2023-03-21T20:20:17.823Z,100772.75
2023-03-21T20:23:07.895Z,100768.50
2023-03-21T20:25:38.859Z,100766.97
2023-03-21T20:28:15.794Z,100762.50
2023-03-21T20:30:50.654Z,100771.31
2023-03-21T20:33:19.051Z,100762.81
2023-03-21T20:36:29.469Z,100762.50
2023-03-21T20:38:35.634Z,100757.59
2023-03-21T20:41:05.110Z,100757.13
2023-03-21T20:44:20.757Z,100756.56
2023-03-21T20:46:21.697Z,100754.03
2023-03-21T20:48:50.723Z,100753.56
2023-03-21T20:52:27.501Z,100764.88
2023-03-21T20:54:06.367Z,100754.47
2023-03-21T20:56:34.276Z,100753.81
2023-03-21T20:59:16.163Z,100760.13
2023-03-21T21:01:45.471Z,100754.53
2023-03-21T21:04:20.020Z,100751.72
2023-03-21T21:06:47.539Z,100748.84
2023-03-21T21:09:14.497Z,100738.19
2023-03-21T21:12:06.461Z,100743.69
2023-03-21T21:14:28.927Z,100745.38
2023-03-21T21:16:58.934Z,100738.81
2023-03-21T21:19:27.844Z,100734.41
2023-03-21T21:21:55.489Z,100742.19
2023-03-21T21:24:22.702Z,100729.00
2023-03-21T21:26:49.875Z,100724.91
2023-03-21T21:29:17.720Z,100725.91
2023-03-21T21:31:52.079Z,100717.06
2023-03-21T21:34:20.455Z,100716.94
2023-03-21T21:36:49.716Z,100721.06
2023-03-21T21:39:17.305Z,100719.44
2023-03-21T21:41:47.819Z,100715.69
2023-03-21T21:44:15.620Z,100711.53
2023-03-21T21:46:44.958Z,100714.78
2023-03-21T21:49:11.835Z,100707.66
2023-03-21T21:51:41.195Z,100714.22
2023-03-21T21:54:12.662Z,100704.88
2023-03-21T21:56:42.001Z,100700.31
2023-03-21T21:59:09.961Z,100708.56
2023-03-21T22:01:39.761Z,100696.09
2023-03-21T22:04:09.829Z,100698.56
2023-03-21T22:06:37.715Z,100704.41
2023-03-21T22:09:05.647Z,100690.31
2023-03-21T22:11:34.310Z,100685.81
2023-03-21T22:14:01.733Z,100679.03
2023-03-21T22:16:29.712Z,100671.81
2023-03-21T22:18:56.731Z,100671.09
2023-03-21T22:21:23.702Z,100673.19
2023-03-21T22:23:51.861Z,100669.66
2023-03-21T22:26:24.899Z,100668.75
2023-03-21T22:28:55.707Z,100661.09
2023-03-21T22:31:28.705Z,100652.25
2023-03-21T22:33:56.007Z,100656.59
2023-03-21T22:36:23.087Z,100660.50
2023-03-21T22:38:50.066Z,100657.03
2023-03-21T22:41:23.714Z,100647.38
2023-03-21T22:43:50.915Z,100646.44
2023-03-21T22:46:21.845Z,100642.94
2023-03-21T22:48:48.886Z,100638.50
2023-03-21T22:51:19.082Z,100640.84
2023-03-21T22:53:46.122Z,100630.16
2023-03-21T22:56:13.484Z,100629.38
2023-03-21T22:58:40.641Z,100621.59
2023-03-21T23:01:08.316Z,100627.81
2023-03-21T23:03:45.998Z,100621.38
2023-03-21T23:06:14.254Z,100618.50
2023-03-21T23:08:42.121Z,100623.75
2023-03-21T23:11:09.833Z,100624.19
2023-03-21T23:13:36.838Z,100621.28
2023-03-21T23:16:04.897Z,100616.56
2023-03-21T23:18:32.641Z,100625.53
2023-03-21T23:21:13.164Z,100628.47
2023-03-21T23:23:42.005Z,100617.28
2023-03-21T23:26:10.494Z,100623.13
2023-03-21T23:28:37.809Z,100614.38
2023-03-21T23:31:11.787Z,100611.13
2023-03-21T23:33:39.097Z,100617.84
2023-03-21T23:36:08.820Z,100599.75
2023-03-21T23:38:37.540Z,100597.22
2023-03-21T23:41:07.283Z,100597.19
2023-03-21T23:43:34.581Z,100592.66
2023-03-21T23:46:02.391Z,100586.19
2023-03-21T23:48:29.715Z,100580.97
2023-03-21T23:50:57.547Z,100572.28
2023-03-21T23:53:28.262Z,100568.44
2023-03-21T23:55:58.572Z,100558.59
2023-03-21T23:58:30.963Z,100553.78
